createdAt,value
2023-01-22T00:02:00.111Z,89.46
2023-01-22T00:04:26.524Z,89.26
2023-01-22T00:06:53.066Z,89.51
2023-01-22T00:09:22.200Z,89.43
2023-01-22T00:11:49.690Z,89.17
2023-01-22T00:14:16.472Z,89.50
2023-01-22T00:16:43.998Z,89.22
2023-01-22T00:19:11.093Z,89.32
2023-01-22T00:21:37.519Z,89.05
2023-01-22T00:24:04.238Z,89.36
2023-01-22T00:26:30.703Z,89.19
2023-01-22T00:28:57.316Z,89.28
2023-01-22T00:31:23.781Z,89.11
2023-01-22T00:33:50.391Z,89.39
2023-01-22T00:36:19.106Z,89.13
2023-01-22T00:38:47.963Z,89.32
2023-01-22T00:41:15.398Z,89.61
2023-01-22T00:43:42.302Z,89.23
2023-01-22T00:46:11.382Z,89.51
2023-01-22T00:48:38.411Z,89.43
2023-01-22T00:51:05.595Z,89.46
2023-01-22T00:53:32.028Z,89.47
2023-01-22T00:56:00.155Z,89.15
2023-01-22T00:58:27.729Z,89.49
2023-01-22T01:00:54.608Z,89.67
2023-01-22T01:03:26.973Z,89.46
2023-01-22T01:05:57.488Z,88.95
2023-01-22T01:08:25.195Z,89.16
2023-01-22T01:11:03.387Z,88.82
2023-01-22T01:13:32.522Z,88.86
2023-01-22T01:16:05.737Z,88.76
2023-01-22T01:18:33.108Z,88.97
2023-01-22T01:21:00.150Z,88.81
2023-01-22T01:23:27.661Z,88.92
2023-01-22T01:25:54.540Z,88.61
2023-01-22T01:28:24.752Z,88.85
2023-01-22T01:30:51.535Z,88.79
2023-01-22T01:33:18.060Z,88.57
2023-01-22T01:35:44.491Z,88.72
2023-01-22T01:38:11.762Z,88.44
2023-01-22T01:40:44.657Z,88.52
2023-01-22T01:43:16.146Z,88.19
2023-01-22T01:45:42.645Z,88.10
2023-01-22T01:48:18.957Z,88.34
2023-01-22T01:50:52.990Z,88.37
2023-01-22T01:53:19.473Z,88.19
2023-01-22T01:55:45.956Z,88.26
2023-01-22T01:58:21.667Z,88.42
2023-01-22T02:00:51.656Z,88.06
2023-01-22T02:03:18.929Z,88.42
2023-01-22T02:05:45.357Z,88.22
2023-01-22T02:08:12.532Z,88.32
2023-01-22T02:10:39.047Z,88.17
2023-01-22T02:13:10.455Z,88.00
2023-01-22T02:15:38.814Z,87.97
2023-01-22T02:18:05.337Z,88.11
2023-01-22T02:20:36.698Z,87.94
2023-01-22T02:23:03.377Z,88.17
2023-01-22T02:25:29.876Z,88.17
2023-01-22T02:27:56.480Z,88.28
2023-01-22T02:30:23.435Z,88.14
2023-01-22T02:32:50.389Z,88.14
2023-01-22T02:35:17.022Z,88.40
2023-01-22T02:37:43.577Z,88.36
2023-01-22T02:40:10.597Z,88.35
2023-01-22T02:42:37.110Z,87.94
2023-01-22T02:45:03.839Z,88.32
2023-01-22T02:47:30.292Z,88.04
2023-01-22T02:49:56.827Z,88.45
2023-01-22T02:52:23.260Z,88.44
2023-01-22T02:54:49.814Z,88.38
2023-01-22T02:57:16.244Z,88.31
2023-01-22T02:59:44.393Z,88.62
2023-01-22T03:02:11.523Z,88.32
2023-01-22T03:04:38.075Z,88.38
2023-01-22T03:07:04.752Z,88.58
2023-01-22T03:09:31.578Z,88.62
2023-01-22T03:11:58.754Z,88.40
2023-01-22T03:14:50.423Z,88.43
2023-01-22T03:17:36.451Z,88.28
2023-01-22T03:20:22.730Z,88.68
2023-01-22T03:22:49.180Z,88.29
2023-01-22T03:25:15.685Z,88.23
2023-01-22T03:28:03.163Z,88.70
2023-01-22T03:30:30.152Z,88.73
2023-01-22T03:32:57.251Z,88.28
2023-01-22T03:35:23.866Z,88.41
2023-01-22T03:38:03.661Z,88.37
2023-01-22T03:40:30.477Z,88.46
2023-01-22T03:42:56.889Z,88.28
2023-01-22T03:45:23.420Z,88.67
2023-01-22T03:47:51.225Z,88.25
2023-01-22T03:50:23.441Z,88.66
2023-01-22T03:52:49.893Z,88.12
2023-01-22T03:55:16.837Z,88.73
2023-01-22T03:57:43.682Z,88.72
2023-01-22T04:00:12.846Z,88.40
2023-01-22T04:02:39.482Z,88.48
2023-01-22T04:05:17.605Z,88.60
2023-01-22T04:07:44.423Z,88.88
2023-01-22T04:10:11.984Z,88.79
2023-01-22T04:12:38.430Z,89.29
2023-01-22T04:15:05.421Z,89.08
2023-01-22T04:17:31.925Z,88.98
2023-01-22T04:20:18.683Z,89.12
2023-01-22T04:22:57.296Z,88.72
2023-01-22T04:25:23.849Z,88.51
2023-01-22T04:27:50.528Z,88.57
2023-01-22T04:30:19.139Z,88.56
2023-01-22T04:32:48.497Z,88.85
2023-01-22T04:35:31.290Z,88.87
2023-01-22T04:37:59.259Z,88.78
2023-01-22T04:40:25.926Z,88.59
2023-01-22T04:42:52.700Z,88.30
2023-01-22T04:45:19.729Z,88.79
2023-01-22T04:47:48.489Z,88.54
2023-01-22T04:50:23.431Z,88.87
2023-01-22T04:52:51.767Z,88.63
2023-01-22T04:55:19.270Z,88.20
2023-01-22T04:57:55.610Z,88.30
2023-01-22T05:00:22.348Z,88.81
2023-01-22T05:02:49.018Z,88.37
2023-01-22T05:05:15.544Z,88.40
2023-01-22T05:07:42.020Z,88.35
2023-01-22T05:10:08.928Z,88.32
2023-01-22T05:12:35.476Z,88.30
2023-01-22T05:15:05.548Z,88.59
2023-01-22T05:17:34.801Z,88.32
2023-01-22T05:20:01.553Z,88.63
2023-01-22T05:22:28.008Z,88.82
2023-01-22T05:24:54.576Z,89.15
2023-01-22T05:27:21.305Z,88.84
2023-01-22T05:29:53.952Z,88.78
2023-01-22T05:32:38.098Z,89.12
2023-01-22T05:35:05.822Z,89.26
2023-01-22T05:37:35.191Z,88.90
2023-01-22T05:40:05.203Z,88.68
2023-01-22T05:42:33.847Z,88.60
2023-01-22T05:45:01.574Z,88.88
2023-01-22T05:47:29.943Z,88.71
2023-01-22T05:50:15.827Z,88.58
2023-01-22T05:52:42.665Z,88.34
2023-01-22T05:55:09.330Z,88.89
2023-01-22T05:57:41.298Z,88.43
2023-01-22T06:00:10.115Z,88.57
2023-01-22T06:02:43.051Z,88.76
2023-01-22T06:05:10.208Z,88.62
2023-01-22T06:07:36.874Z,88.67
2023-01-22T06:10:03.741Z,88.73
2023-01-22T06:12:31.661Z,88.81
2023-01-22T06:14:58.657Z,88.71
2023-01-22T06:17:25.150Z,88.84
2023-01-22T06:19:55.693Z,88.30
2023-01-22T06:22:22.296Z,88.13
2023-01-22T06:24:53.609Z,88.32
2023-01-22T06:27:22.714Z,88.21
2023-01-22T06:30:00.430Z,88.45
2023-01-22T06:32:27.228Z,88.06
2023-01-22T06:34:53.656Z,88.33
2023-01-22T06:37:21.667Z,88.23
2023-01-22T06:39:48.415Z,88.30
2023-01-22T06:42:21.331Z,87.97
2023-01-22T06:44:50.472Z,87.84
2023-01-22T06:47:18.084Z,87.97
2023-01-22T06:49:44.701Z,88.11
2023-01-22T06:52:11.400Z,88.15
2023-01-22T06:54:37.824Z,88.08
2023-01-22T06:57:05.523Z,88.03
2023-01-22T06:59:37.125Z,88.19
2023-01-22T07:02:03.845Z,87.98
2023-01-22T07:04:30.299Z,88.08
2023-01-22T07:06:56.713Z,87.99
2023-01-22T07:09:23.387Z,87.98
2023-01-22T07:11:49.879Z,88.15
2023-01-22T07:14:19.649Z,87.97
2023-01-22T07:16:49.935Z,87.90
2023-01-22T07:19:16.368Z,88.19
2023-01-22T07:21:43.365Z,88.19
2023-01-22T07:24:10.656Z,87.95
2023-01-22T07:26:38.623Z,87.86
2023-01-22T07:29:05.807Z,87.70
2023-01-22T07:31:32.294Z,87.89
2023-01-22T07:33:58.818Z,88.02
2023-01-22T07:36:25.211Z,87.67
2023-01-22T07:38:51.690Z,87.98
2023-01-22T07:41:25.902Z,87.78
2023-01-22T07:43:53.417Z,87.95
2023-01-22T07:46:19.860Z,87.92
2023-01-22T07:48:46.590Z,87.81
2023-01-22T07:51:13.181Z,87.91
2023-01-22T07:53:40.053Z,87.55
2023-01-22T07:56:06.780Z,87.30
2023-01-22T07:58:33.416Z,87.23
2023-01-22T08:00:59.976Z,87.32
2023-01-22T08:03:26.618Z,87.05
2023-01-22T08:05:53.026Z,87.09
2023-01-22T08:08:23.047Z,87.15
2023-01-22T08:10:49.476Z,86.90
2023-01-22T08:13:16.010Z,87.08
2023-01-22T08:15:43.069Z,87.04
2023-01-22T08:18:10.755Z,86.88
2023-01-22T08:20:37.323Z,86.96
2023-01-22T08:23:03.844Z,86.79
2023-01-22T08:25:30.466Z,87.07
2023-01-22T08:27:57.073Z,86.66
2023-01-22T08:30:23.540Z,86.58
2023-01-22T08:32:51.348Z,86.74
2023-01-22T08:35:17.913Z,86.55
2023-01-22T08:37:44.418Z,86.52
2023-01-22T08:40:11.819Z,86.67
2023-01-22T08:42:38.295Z,86.80
2023-01-22T08:45:05.133Z,86.63
2023-01-22T08:47:31.600Z,86.80
2023-01-22T08:49:58.039Z,86.87
2023-01-22T08:52:24.452Z,86.53
2023-01-22T08:54:50.905Z,86.83
2023-01-22T08:57:17.277Z,86.59
2023-01-22T08:59:52.578Z,86.40
2023-01-22T09:02:27.853Z,86.43
2023-01-22T09:04:54.327Z,86.45
2023-01-22T09:07:20.812Z,85.84
2023-01-22T09:09:47.257Z,86.19
2023-01-22T09:12:13.762Z,86.28
2023-01-22T09:14:40.168Z,86.34
2023-01-22T09:17:06.623Z,86.05
2023-01-22T09:19:33.088Z,85.74
2023-01-22T09:22:06.093Z,85.59
2023-01-22T09:24:33.067Z,85.41
2023-01-22T09:27:00.017Z,85.38
2023-01-22T09:29:26.426Z,85.31
2023-01-22T09:31:53.190Z,85.40
2023-01-22T09:34:19.605Z,84.92
2023-01-22T09:36:46.007Z,84.81
2023-01-22T09:39:12.747Z,83.91
2023-01-22T09:41:41.471Z,84.09
2023-01-22T09:44:38.075Z,84.27
2023-01-22T09:47:13.539Z,84.18
2023-01-22T09:50:04.269Z,83.73
2023-01-22T09:52:32.848Z,83.98
2023-01-22T09:54:59.712Z,83.71
2023-01-22T09:57:31.778Z,83.05
2023-01-22T09:59:58.971Z,83.08
2023-01-22T10:02:28.127Z,82.52
2023-01-22T10:05:00.849Z,82.61
2023-01-22T10:07:39.870Z,82.21
2023-01-22T10:10:20.198Z,82.46
2023-01-22T10:12:51.330Z,82.19
2023-01-22T10:15:20.882Z,82.25
2023-01-22T10:17:47.909Z,82.09
2023-01-22T10:20:14.642Z,82.14
2023-01-22T10:22:41.137Z,81.90
2023-01-22T10:25:16.164Z,82.01
2023-01-22T10:27:44.766Z,82.07
2023-01-22T10:30:13.936Z,82.51
2023-01-22T10:32:40.818Z,82.61
2023-01-22T10:35:17.188Z,81.76
2023-01-22T10:37:49.901Z,81.70
2023-01-22T10:40:32.742Z,81.66
2023-01-22T10:43:05.459Z,81.88
2023-01-22T10:45:31.926Z,82.28
2023-01-22T10:48:16.699Z,82.22
2023-01-22T10:50:45.074Z,81.96
2023-01-22T10:53:31.837Z,82.32
2023-01-22T10:56:00.892Z,82.73
2023-01-22T10:58:36.427Z,82.80
2023-01-22T11:01:06.616Z,82.38
2023-01-22T11:03:36.358Z,82.50
2023-01-22T11:06:05.329Z,82.87
2023-01-22T11:08:41.259Z,82.96
2023-01-22T11:11:10.432Z,83.11
2023-01-22T11:13:48.673Z,82.99
2023-01-22T11:16:20.471Z,83.19
2023-01-22T11:18:56.202Z,83.21
2023-01-22T11:21:26.964Z,83.02
2023-01-22T11:24:13.137Z,83.01
2023-01-22T11:27:07.155Z,82.76
2023-01-22T11:30:11.248Z,82.60
2023-01-22T11:32:40.779Z,82.50
2023-01-22T11:35:18.755Z,82.16
2023-01-22T11:38:09.790Z,82.05
2023-01-22T11:40:45.081Z,82.11
2023-01-22T11:43:55.455Z,81.83
2023-01-22T11:46:49.329Z,81.75
2023-01-22T11:49:41.560Z,82.01
2023-01-22T11:52:34.327Z,82.32
2023-01-22T11:55:16.113Z,82.22
2023-01-22T11:57:49.099Z,82.10
2023-01-22T12:00:26.377Z,81.89
2023-01-22T12:03:26.904Z,81.30
2023-01-22T12:06:18.192Z,81.63
2023-01-22T12:08:52.982Z,81.73
2023-01-22T12:11:45.397Z,81.42
2023-01-22T12:14:18.470Z,81.27
2023-01-22T12:16:52.380Z,81.69
2023-01-22T12:19:47.200Z,81.86
2023-01-22T12:22:30.624Z,81.50
2023-01-22T12:25:15.844Z,81.18
2023-01-22T12:27:47.776Z,81.26
2023-01-22T12:30:46.337Z,81.30
2023-01-22T12:33:19.243Z,81.36
2023-01-22T12:35:49.916Z,81.13
2023-01-22T12:38:22.830Z,80.68
2023-01-22T12:40:49.174Z,80.73
2023-01-22T12:43:19.172Z,80.80
2023-01-22T12:46:06.973Z,80.91
2023-01-22T12:48:51.462Z,81.27
2023-01-22T12:51:34.466Z,81.18
2023-01-22T12:54:20.327Z,81.16
2023-01-22T12:56:51.483Z,81.04
2023-01-22T12:59:32.442Z,80.92
2023-01-22T13:02:04.913Z,80.66
2023-01-22T13:04:32.532Z,80.63
2023-01-22T13:07:38.420Z,80.59
2023-01-22T13:10:31.835Z,80.50
2023-01-22T13:13:21.869Z,80.50
2023-01-22T13:16:02.863Z,80.09
2023-01-22T13:18:32.236Z,80.43
2023-01-22T13:20:58.540Z,80.15
2023-01-22T13:23:25.328Z,80.19
2023-01-22T13:25:56.238Z,80.66
2023-01-22T13:28:23.875Z,81.05
2023-01-22T13:31:02.504Z,81.17
2023-01-22T13:33:29.339Z,81.70
2023-01-22T13:35:57.157Z,81.83
2023-01-22T13:38:32.541Z,81.88
2023-01-22T13:41:12.909Z,82.25
2023-01-22T13:43:40.317Z,82.12
2023-01-22T13:46:07.011Z,82.15
2023-01-22T13:48:33.510Z,82.28
2023-01-22T13:51:06.287Z,82.62
2023-01-22T13:53:42.082Z,82.26
2023-01-22T13:56:19.640Z,82.06
2023-01-22T13:58:48.833Z,82.02
2023-01-22T14:01:30.678Z,82.34
2023-01-22T14:04:02.332Z,82.51
2023-01-22T14:06:29.378Z,82.33
2023-01-22T14:08:57.513Z,82.22
2023-01-22T14:11:24.002Z,82.35
2023-01-22T14:13:52.157Z,82.46
2023-01-22T14:16:18.573Z,82.27
2023-01-22T14:18:46.616Z,82.11
2023-01-22T14:21:13.117Z,81.97
2023-01-22T14:23:39.792Z,82.16
2023-01-22T14:26:07.823Z,82.22
2023-01-22T14:28:35.408Z,82.34
2023-01-22T14:31:02.305Z,82.32
2023-01-22T14:33:31.195Z,82.61
2023-01-22T14:35:58.107Z,82.66
2023-01-22T14:38:25.561Z,82.36
2023-01-22T14:40:52.503Z,82.61
2023-01-22T14:43:20.028Z,82.52
2023-01-22T14:45:46.886Z,82.22
2023-01-22T14:48:18.647Z,82.57
2023-01-22T14:50:45.945Z,82.82
2023-01-22T14:53:13.027Z,83.04
2023-01-22T14:55:39.449Z,82.71
2023-01-22T14:58:08.807Z,82.77
2023-01-22T15:00:35.232Z,82.77
2023-01-22T15:03:01.951Z,82.88
2023-01-22T15:05:29.348Z,83.15
2023-01-22T15:07:55.833Z,83.26
2023-01-22T15:10:22.251Z,83.26
2023-01-22T15:12:50.406Z,83.50
2023-01-22T15:15:18.652Z,83.66
2023-01-22T15:17:45.085Z,83.91
2023-01-22T15:20:11.969Z,84.23
2023-01-22T15:22:38.471Z,83.97
2023-01-22T15:25:05.343Z,84.35
2023-01-22T15:27:31.836Z,84.46
2023-01-22T15:29:58.277Z,84.44
2023-01-22T15:32:24.781Z,84.54
2023-01-22T15:34:51.211Z,84.72
2023-01-22T15:37:17.667Z,84.58
2023-01-22T15:39:44.148Z,84.56
2023-01-22T15:42:10.629Z,84.53
2023-01-22T15:44:38.489Z,84.94
2023-01-22T15:47:05.755Z,84.69
2023-01-22T15:49:32.652Z,84.58
2023-01-22T15:51:59.032Z,84.67
2023-01-22T15:54:26.777Z,84.71
2023-01-22T15:56:53.636Z,84.42
2023-01-22T15:59:20.100Z,84.46
2023-01-22T16:01:46.815Z,84.56
2023-01-22T16:04:13.369Z,84.72
2023-01-22T16:06:39.885Z,84.62
2023-01-22T16:09:09.762Z,84.55
2023-01-22T16:11:37.416Z,84.77
2023-01-22T16:14:04.168Z,84.53
2023-01-22T16:16:38.052Z,84.73
2023-01-22T16:19:06.546Z,84.53
2023-01-22T16:21:33.199Z,84.22
2023-01-22T16:24:00.896Z,84.44
2023-01-22T16:26:32.285Z,84.46
2023-01-22T16:29:00.429Z,84.71
2023-01-22T16:31:29.127Z,84.65
2023-01-22T16:33:58.315Z,84.69
2023-01-22T16:36:28.341Z,84.86
2023-01-22T16:38:54.968Z,84.58
2023-01-22T16:41:25.551Z,84.60
2023-01-22T16:44:06.958Z,84.83
2023-01-22T16:46:35.137Z,84.85
2023-01-22T16:49:04.631Z,85.13
2023-01-22T16:51:37.077Z,85.47
2023-01-22T16:54:04.639Z,85.05
2023-01-22T16:56:32.412Z,85.49
2023-01-22T16:58:59.470Z,85.22
2023-01-22T17:01:26.264Z,85.69
2023-01-22T17:03:52.725Z,85.28
2023-01-22T17:06:27.777Z,85.62
2023-01-22T17:08:54.542Z,85.49
2023-01-22T17:11:21.240Z,85.72
2023-01-22T17:13:47.733Z,85.40
2023-01-22T17:16:15.113Z,85.73
2023-01-22T17:18:41.964Z,85.62
2023-01-22T17:21:11.148Z,85.87
2023-01-22T17:23:37.692Z,85.82
2023-01-22T17:26:09.103Z,85.92
2023-01-22T17:28:37.460Z,86.09
2023-01-22T17:31:08.940Z,86.15
2023-01-22T17:33:36.000Z,86.23
2023-01-22T17:36:03.896Z,86.06
2023-01-22T17:38:32.780Z,85.99
2023-01-22T17:41:06.336Z,86.00
2023-01-22T17:43:33.663Z,86.04
2023-01-22T17:46:00.324Z,85.87
2023-01-22T17:48:27.866Z,85.94
2023-01-22T17:50:54.288Z,85.99
2023-01-22T17:53:20.696Z,85.76
2023-01-22T17:55:47.106Z,86.19
2023-01-22T17:58:13.545Z,85.93
2023-01-22T18:00:39.990Z,85.98
2023-01-22T18:03:06.497Z,85.86
2023-01-22T18:05:33.434Z,85.68
2023-01-22T18:07:59.880Z,85.98
2023-01-22T18:10:27.635Z,85.54
2023-01-22T18:12:54.050Z,85.70
2023-01-22T18:15:20.988Z,85.79
2023-01-22T18:17:49.415Z,85.89
2023-01-22T18:20:16.301Z,86.04
2023-01-22T18:22:42.771Z,85.84
2023-01-22T18:25:09.513Z,86.34
2023-01-22T18:27:35.922Z,85.99
2023-01-22T18:30:02.312Z,86.00
2023-01-22T18:32:29.077Z,85.64
2023-01-22T18:34:55.571Z,85.87
2023-01-22T18:37:21.987Z,86.15
2023-01-22T18:39:48.425Z,85.81
2023-01-22T18:42:14.901Z,85.93
2023-01-22T18:44:41.407Z,85.91
2023-01-22T18:47:11.022Z,85.94
2023-01-22T18:49:37.496Z,85.79
2023-01-22T18:52:03.952Z,85.63
2023-01-22T18:54:30.446Z,85.93
2023-01-22T18:56:57.164Z,85.92
2023-01-22T18:59:23.584Z,85.86
2023-01-22T19:01:51.669Z,86.11
2023-01-22T19:04:21.591Z,86.12
2023-01-22T19:06:52.957Z,86.24
2023-01-22T19:09:20.168Z,86.05
2023-01-22T19:11:48.408Z,86.13
2023-01-22T19:14:18.806Z,86.32
2023-01-22T19:16:48.267Z,86.16
2023-01-22T19:19:16.258Z,86.10
2023-01-22T19:21:47.546Z,86.27
2023-01-22T19:24:17.130Z,86.27
2023-01-22T19:26:46.456Z,85.89
2023-01-22T19:29:17.137Z,86.36
2023-01-22T19:31:47.242Z,86.29
2023-01-22T19:34:20.952Z,86.08
2023-01-22T19:36:47.436Z,86.13
2023-01-22T19:39:13.906Z,86.02
2023-01-22T19:41:41.106Z,85.85
2023-01-22T19:44:09.033Z,86.09
2023-01-22T19:46:37.628Z,85.98
2023-01-22T19:49:05.149Z,85.97
2023-01-22T19:51:31.769Z,85.99
2023-01-22T19:54:02.184Z,85.83
2023-01-22T19:56:31.104Z,85.92
2023-01-22T19:59:02.970Z,85.92
2023-01-22T20:01:29.505Z,86.13
2023-01-22T20:03:56.330Z,86.00
2023-01-22T20:06:23.790Z,85.72
2023-01-22T20:08:50.645Z,85.81
2023-01-22T20:11:17.525Z,85.89
2023-01-22T20:13:44.387Z,85.39
2023-01-22T20:16:36.870Z,85.51
2023-01-22T20:19:03.446Z,85.88
2023-01-22T20:21:30.839Z,85.71
2023-01-22T20:23:57.288Z,85.63
2023-01-22T20:26:23.770Z,86.16
2023-01-22T20:28:50.487Z,86.01
2023-01-22T20:31:20.014Z,86.05
2023-01-22T20:33:46.623Z,86.26
2023-01-22T20:36:15.197Z,86.39
2023-01-22T20:38:45.870Z,86.07
2023-01-22T20:41:13.487Z,86.12
2023-01-22T20:43:41.789Z,86.39
2023-01-22T20:46:12.576Z,86.22
2023-01-22T20:48:39.501Z,86.01
2023-01-22T20:51:10.614Z,85.61
2023-01-22T20:53:37.098Z,85.91
2023-01-22T20:56:06.759Z,86.33
2023-01-22T20:58:33.718Z,86.32
2023-01-22T21:01:08.959Z,86.13
2023-01-22T21:03:35.907Z,86.43
2023-01-22T21:06:07.664Z,86.09
2023-01-22T21:08:34.800Z,86.35
2023-01-22T21:11:04.224Z,86.05
2023-01-22T21:13:30.804Z,85.79
2023-01-22T21:15:57.548Z,85.83
2023-01-22T21:18:24.173Z,85.87
2023-01-22T21:20:50.608Z,86.29
2023-01-22T21:23:17.272Z,85.95
2023-01-22T21:25:43.672Z,85.92
2023-01-22T21:28:10.787Z,85.88
2023-01-22T21:30:37.280Z,85.53
2023-01-22T21:33:03.746Z,85.60
2023-01-22T21:35:30.261Z,85.68
2023-01-22T21:37:56.778Z,85.90
2023-01-22T21:40:23.272Z,85.95
2023-01-22T21:43:08.393Z,86.04
2023-01-22T21:45:53.575Z,85.95
2023-01-22T21:48:20.033Z,86.21
2023-01-22T21:50:46.438Z,86.41
2023-01-22T21:53:12.924Z,86.46
2023-01-22T21:55:39.405Z,86.33
2023-01-22T21:58:08.686Z,86.03
2023-01-22T22:00:35.447Z,86.16
2023-01-22T22:03:01.885Z,86.13
2023-01-22T22:05:30.489Z,86.34
2023-01-22T22:07:57.944Z,86.22
2023-01-22T22:10:24.353Z,86.17
2023-01-22T22:12:52.831Z,86.27
2023-01-22T22:15:19.377Z,86.32
2023-01-22T22:17:45.986Z,86.32
2023-01-22T22:20:12.646Z,86.29
2023-01-22T22:22:39.121Z,86.61
2023-01-22T22:25:05.879Z,86.68
2023-01-22T22:27:32.288Z,86.66
2023-01-22T22:29:58.761Z,86.63
2023-01-22T22:32:25.224Z,86.66
2023-01-22T22:34:51.633Z,86.66
2023-01-22T22:37:18.082Z,86.79
2023-01-22T22:39:46.924Z,86.83
2023-01-22T22:42:13.417Z,87.06
2023-01-22T22:44:39.950Z,87.09
2023-01-22T22:47:06.589Z,87.02
2023-01-22T22:49:33.080Z,86.99
2023-01-22T22:51:59.558Z,87.07
2023-01-22T22:54:26.138Z,87.24
2023-01-22T22:56:52.848Z,87.00
2023-01-22T22:59:20.689Z,87.23
2023-01-22T23:01:48.450Z,87.20
2023-01-22T23:04:15.157Z,87.57
2023-01-22T23:06:43.830Z,87.24
2023-01-22T23:09:12.933Z,87.63
2023-01-22T23:11:39.647Z,87.57
2023-01-22T23:14:06.363Z,87.88
2023-01-22T23:16:37.785Z,87.54
2023-01-22T23:19:06.988Z,87.58
2023-01-22T23:21:40.632Z,87.65
2023-01-22T23:24:11.406Z,87.98
2023-01-22T23:26:38.476Z,87.67
2023-01-22T23:29:06.593Z,87.94
2023-01-22T23:31:35.880Z,87.50
2023-01-22T23:34:03.500Z,87.78
2023-01-22T23:36:33.470Z,87.99
2023-01-22T23:38:59.955Z,87.84
2023-01-22T23:41:26.638Z,87.49
2023-01-22T23:43:53.158Z,87.42
2023-01-22T23:46:22.353Z,87.84
2023-01-22T23:48:48.758Z,87.63
2023-01-22T23:51:15.996Z,87.81
2023-01-22T23:53:44.717Z,87.69
2023-01-22T23:56:12.175Z,87.45
2023-01-22T23:58:39.011Z,87.51
